Time;durP1;ratioP1;P1;durP2;ratioP2;P2;SDS_P1;SDS_P2;PMS_P1;PMS_P2;Temp;Humidity;BMP_temperature;BMP_pressure;BME280_temperature;BME280_humidity;BME280_pressure;Samples;Min_cycle;Max_cycle;Signal;HPM_P1;HPM_P2
2022/09/03 00:00:08;;;;;;;4.93;1.30;;;;;;;7.27;70.42;100302.53;5011059;28;20040;-53
2022/09/03 00:02:49;;;;;;;3.67;1.02;;;;;;;7.25;70.40;100302.66;5029235;28;20111;-55
2022/09/03 00:05:22;;;;;;;2.78;1.30;;;;;;;7.01;70.31;100291.63;5030431;28;20430;-51
2022/09/03 00:08:12;;;;;;;3.15;1.20;;;;;;;7.23;70.51;100311.66;5029033;28;20037;-52
2022/09/03 00:11:07;;;;;;;1.60;1.15;;;;;;;7.22;70.38;100313.44;5030858;28;20068;-51
2022/09/03 00:13:37;;;;;;;3.90;1.48;;;;;;;7.11;70.49;100307.91;5028714;28;20033;-51
2022/09/03 00:16:09;;;;;;;2.65;1.40;;;;;;;7.11;70.86;100321.22;5030389;28;20034;-49
2022/09/03 00:18:42;;;;;;;2.38;1.40;;;;;;;7.09;70.75;100331.09;5029706;28;20029;-53
2022/09/03 00:21:13;;;;;;;2.55;1.42;;;;;;;7.11;70.65;100342.53;5022363;28;20061;-51
2022/09/03 00:23:41;;;;;;;2.00;1.40;;;;;;;7.07;70.88;100341.00;5010621;28;20474;-53
2022/09/03 00:26:13;;;;;;;2.83;1.10;;;;;;;7.10;70.73;100340.81;5011820;28;20034;-49
2022/09/03 00:28:48;;;;;;;1.92;1.20;;;;;;;7.10;70.83;100354.13;5010672;28;20375;-49
2022/09/03 00:31:21;;;;;;;2.40;1.23;;;;;;;7.07;71.14;100344.50;5010992;28;20044;-53
2022/09/03 00:33:50;;;;;;;2.15;1.10;;;;;;;6.99;71.22;100344.97;5011763;28;20053;-52
2022/09/03 00:36:23;;;;;;;4.95;1.08;;;;;;;7.04;71.16;100348.22;5011194;28;20044;-51
2022/09/03 00:38:49;;;;;;;1.80;1.17;;;;;;;6.99;71.26;100347.63;5011112;28;20092;-52
2022/09/03 00:41:20;;;;;;;3.53;1.20;;;;;;;7.01;71.42;100356.38;5011116;28;20038;-53
2022/09/03 00:43:52;;;;;;;2.70;1.40;;;;;;;6.97;71.66;100354.81;5013399;28;20052;-50
2022/09/03 00:46:31;;;;;;;2.72;1.08;;;;;;;6.96;71.65;100347.78;5030366;28;20052;-50
2022/09/03 00:49:11;;;;;;;2.55;0.95;;;;;;;6.95;71.96;100361.19;5030390;28;20063;-51
2022/09/03 00:51:52;;;;;;;1.48;1.02;;;;;;;7.00;71.77;100370.63;5028900;28;20068;-52
2022/09/03 00:54:45;;;;;;;1.67;1.17;;;;;;;6.96;71.93;100369.06;5030190;28;20037;-52
2022/09/03 00:57:33;;;;;;;1.38;1.10;;;;;;;7.00;72.42;100369.78;5028559;28;20044;-50
2022/09/03 01:00:06;;;;;;;2.22;1.08;;;;;;;6.92;72.25;100375.53;5030338;28;20045;-51
2022/09/03 01:02:49;;;;;;;3.00;1.33;;;;;;;6.89;72.59;100376.56;5027996;28;20090;-51
2022/09/03 01:05:35;;;;;;;2.83;1.27;;;;;;;6.88;72.91;100376.66;5030284;28;20064;-49
2022/09/03 01:08:23;;;;;;;2.20;1.10;;;;;;;6.89;72.46;100383.69;5028477;28;20106;-49
2022/09/03 01:11:01;;;;;;;1.73;1.58;;;;;;;6.89;72.94;100375.69;5028877;28;20441;-52
2022/09/03 01:13:29;;;;;;;2.50;1.13;;;;;;;6.85;73.06;100369.69;5028112;28;20034;-51
2022/09/03 01:16:04;;;;;;;1.45;1.02;;;;;;;6.81;73.09;100380.59;5030169;28;20037;-52
2022/09/03 01:18:35;;;;;;;1.58;1.15;;;;;;;6.83;72.63;100374.22;5028721;28;20454;-52
2022/09/03 01:21:24;;;;;;;3.13;1.15;;;;;;;6.74;72.91;100353.47;5027963;28;20047;-53
2022/09/03 01:24:30;;;;;;;1.90;1.05;;;;;;;6.89;72.86;100381.03;5029563;28;20046;-56
2022/09/03 01:27:20;;;;;;;1.35;1.15;;;;;;;6.87;72.97;100383.78;5028441;28;20132;-52
2022/09/03 01:30:22;;;;;;;1.50;1.00;;;;;;;6.82;73.12;100384.97;5031736;28;20092;-51
2022/09/03 01:33:06;;;;;;;5.35;1.40;;;;;;;6.85;73.17;100388.31;5017728;28;20049;-53
2022/09/03 01:35:34;;;;;;;2.85;1.23;;;;;;;6.77;73.04;100384.38;5014341;28;20041;-51
2022/09/03 01:38:05;;;;;;;2.03;1.10;;;;;;;6.74;73.09;100386.25;5013790;28;20462;-52
2022/09/03 01:42:12;;;;;;;3.33;1.25;;;;;;;6.56;73.60;100361.53;5014330;28;20049;-47
2022/09/03 01:44:00;;;;;;;1.70;1.20;;;;;;;6.77;72.97;100389.72;5013528;28;20045;-48
2022/09/03 01:46:34;;;;;;;2.33;1.60;;;;;;;6.73;73.08;100400.50;5014713;28;20084;-51
2022/09/03 01:49:27;;;;;;;3.17;2.00;;;;;;;6.78;73.40;100410.91;5013582;28;20152;-54
2022/09/03 01:52:04;;;;;;;2.47;1.55;;;;;;;6.53;73.13;100380.31;5015748;28;20053;-49
2022/09/03 01:54:51;;;;;;;2.92;1.67;;;;;;;6.67;73.53;100403.50;5013923;28;20033;-53
2022/09/03 01:57:40;;;;;;;2.10;1.65;;;;;;;6.75;73.82;100417.28;5014462;28;20029;-52
2022/09/03 02:00:12;;;;;;;4.90;1.85;;;;;;;6.71;73.65;100418.34;5012938;28;20038;-50
2022/09/03 02:02:42;;;;;;;2.10;1.45;;;;;;;6.78;73.58;100418.03;5013362;28;20475;-49
2022/09/03 02:05:13;;;;;;;2.80;1.65;;;;;;;6.80;72.95;100418.81;5014262;28;20363;-54
2022/09/03 02:07:48;;;;;;;1.75;1.40;;;;;;;6.75;73.30;100421.72;5013254;28;20470;-52
2022/09/03 02:10:19;;;;;;;3.67;1.95;;;;;;;6.75;73.47;100430.56;5013825;28;20038;-52
2022/09/03 02:12:50;;;;;;;4.72;1.55;;;;;;;6.69;73.54;100425.56;5012920;28;20068;-53
2022/09/03 02:15:19;;;;;;;3.15;1.40;;;;;;;6.67;73.29;100427.47;5012988;28;20415;-52
2022/09/03 02:17:46;;;;;;;3.08;1.48;;;;;;;6.61;73.15;100427.81;5013153;28;20030;-54
2022/09/03 02:20:18;;;;;;;5.07;1.55;;;;;;;6.67;73.45;100435.44;5012799;28;20102;-48
2022/09/03 02:22:45;;;;;;;3.17;1.67;;;;;;;6.63;73.71;100441.88;5013905;28;20042;-51
2022/09/03 02:25:11;;;;;;;2.60;1.70;;;;;;;6.61;73.52;100439.28;5012777;28;20383;-50
2022/09/03 02:27:37;;;;;;;2.65;1.88;;;;;;;6.61;74.10;100433.97;5012627;28;20092;-50
2022/09/03 02:30:04;;;;;;;4.55;1.52;;;;;;;6.63;73.36;100439.22;5013781;28;20044;-51
2022/09/03 02:32:31;;;;;;;4.13;1.60;;;;;;;6.64;73.64;100445.41;5012292;28;20036;-50
2022/09/03 02:34:57;;;;;;;2.38;1.55;;;;;;;6.63;73.93;100439.22;5013564;28;20030;-54
2022/09/03 02:37:23;;;;;;;7.10;1.80;;;;;;;6.62;73.31;100437.50;5013109;28;20034;-55
2022/09/03 02:39:50;;;;;;;2.97;1.85;;;;;;;6.64;73.88;100451.56;5012546;28;20030;-51
2022/09/03 02:42:17;;;;;;;2.10;1.65;;;;;;;6.64;73.27;100448.91;5003089;28;20079;-51
2022/09/03 02:44:54;;;;;;;5.82;1.60;;;;;;;6.66;73.50;100444.38;5032497;28;20041;-49
2022/09/03 02:47:20;;;;;;;4.05;1.90;;;;;;;6.49;73.52;100417.81;5030844;28;20335;-52
2022/09/03 02:49:48;;;;;;;4.25;1.70;;;;;;;6.65;73.74;100445.31;5031488;28;20167;-53
2022/09/03 02:52:15;;;;;;;2.85;1.75;;;;;;;6.65;73.34;100450.63;5032463;28;20029;-54
2022/09/03 02:54:40;;;;;;;3.00;2.03;;;;;;;6.67;73.86;100454.06;5030653;28;20033;-54
2022/09/03 02:57:08;;;;;;;2.13;1.58;;;;;;;6.69;73.25;100457.50;5031971;28;20029;-52
2022/09/03 02:59:34;;;;;;;5.45;1.88;;;;;;;6.72;73.61;100452.00;5031765;28;20044;-52
2022/09/03 03:02:01;;;;;;;2.78;2.13;;;;;;;6.65;73.21;100450.63;5030484;28;20040;-52
2022/09/03 03:04:28;;;;;;;5.90;1.88;;;;;;;6.77;73.04;100462.41;5031960;28;20067;-58
2022/09/03 03:06:53;;;;;;;4.28;1.67;;;;;;;6.79;72.88;100454.34;5031551;28;20554;-53
2022/09/03 03:09:19;;;;;;;6.70;2.05;;;;;;;6.82;73.10;100463.00;5013328;28;20117;-56
2022/09/03 03:11:45;;;;;;;5.47;2.05;;;;;;;6.84;72.90;100470.94;5012206;28;20038;-52
2022/09/03 03:14:11;;;;;;;2.53;2.03;;;;;;;6.72;72.62;100436.03;5012057;28;20037;-57
2022/09/03 03:16:36;;;;;;;4.68;1.65;;;;;;;6.94;72.84;100472.13;5012755;28;20030;-54
2022/09/03 03:19:02;;;;;;;4.85;1.80;;;;;;;6.85;72.53;100449.53;5012118;28;20034;-53
2022/09/03 03:21:27;;;;;;;2.55;1.60;;;;;;;6.96;72.44;100448.94;5013027;28;20034;-58
2022/09/03 03:23:53;;;;;;;4.95;1.88;;;;;;;7.46;71.72;100478.13;5012366;28;20045;-53
2022/09/03 03:26:20;;;;;;;4.25;1.60;;;;;;;8.02;70.17;100472.25;5011544;28;20037;-49
2022/09/03 03:28:47;;;;;;;3.58;1.90;;;;;;;8.98;67.06;100470.91;5017471;28;20536;-50
2022/09/03 03:31:16;;;;;;;6.07;1.80;;;;;;;10.33;62.48;100472.72;5021109;28;20396;-52
2022/09/03 03:33:42;;;;;;;5.28;1.30;;;;;;;11.66;57.72;100472.25;5020132;28;20382;-51
2022/09/03 03:36:13;;;;;;;3.67;1.50;;;;;;;12.88;54.42;100467.41;5011287;28;20466;-49
2022/09/03 03:38:40;;;;;;;1.15;1.10;;;;;;;13.97;50.87;100461.25;5011402;28;20052;-55
2022/09/03 03:41:14;;;;;;;2.75;1.20;;;;;;;14.99;48.30;100465.94;5013491;28;20508;-54
2022/09/03 03:43:40;;;;;;;3.67;1.52;;;;;;;15.85;45.62;100469.06;5020780;28;20445;-49
2022/09/03 03:46:06;;;;;;;1.30;1.20;;;;;;;16.66;43.26;100462.38;5021204;28;20022;-52
2022/09/03 03:48:32;;;;;;;1.90;1.27;;;;;;;17.34;41.68;100453.06;5021703;28;20121;-51
2022/09/03 03:51:03;;;;;;;1.70;1.20;;;;;;;17.97;41.04;100461.31;5031491;28;20470;-54
2022/09/03 03:53:29;;;;;;;2.50;1.30;;;;;;;18.65;38.73;100461.63;5020252;28;20036;-58
2022/09/03 03:56:00;;;;;;;1.63;1.33;;;;;;;19.39;37.60;100461.06;5011146;28;20075;-52
2022/09/03 03:58:28;;;;;;;2.65;1.15;;;;;;;19.93;36.02;100467.97;5012574;28;20037;-51
2022/09/03 04:00:53;;;;;;;2.30;1.42;;;;;;;20.42;34.20;100450.75;5011100;28;20076;-54
2022/09/03 04:03:19;;;;;;;2.30;1.15;;;;;;;20.98;33.13;100455.38;5011920;28;20069;-61
2022/09/03 04:05:58;;;;;;;1.48;1.38;;;;;;;21.67;32.71;100455.66;5030934;28;20458;-55
2022/09/03 04:08:24;;;;;;;2.65;1.50;;;;;;;21.78;31.34;100457.97;5012807;28;20516;-56
2022/09/03 04:10:50;;;;;;;1.40;1.20;;;;;;;22.23;30.51;100469.88;5022266;28;20138;-55
2022/09/03 04:13:16;;;;;;;1.85;1.10;;;;;;;22.75;29.34;100464.56;5011480;28;20109;-54
2022/09/03 04:15:42;;;;;;;1.88;1.40;;;;;;;23.23;28.65;100457.84;5018188;28;20212;-53
2022/09/03 04:18:07;;;;;;;1.83;1.35;;;;;;;23.82;28.04;100466.88;5017869;28;20105;-56
2022/09/03 04:20:35;;;;;;;4.20;1.10;;;;;;;24.27;26.84;100469.41;5020481;28;20071;-51
2022/09/03 04:23:01;;;;;;;1.20;1.10;;;;;;;24.61;26.00;100475.97;5020196;28;20387;-59
2022/09/03 04:25:27;;;;;;;1.17;1.08;;;;;;;25.04;25.71;100466.72;5015073;28;20034;-59
2022/09/03 04:27:52;;;;;;;1.60;1.50;;;;;;;25.61;24.85;100472.00;5030081;28;20029;-52
2022/09/03 04:30:19;;;;;;;1.30;1.23;;;;;;;26.11;24.31;100473.53;5021761;28;20069;-54
2022/09/03 04:32:53;;;;;;;1.35;1.25;;;;;;;26.56;22.92;100480.28;5023816;28;20043;-50
2022/09/03 04:35:24;;;;;;;2.73;1.27;;;;;;;27.13;22.78;100480.59;5019150;28;20030;-53
2022/09/03 04:37:50;;;;;;;1.60;1.50;;;;;;;27.17;22.20;100459.84;5020800;28;20021;-51
2022/09/03 04:40:17;;;;;;;1.58;1.20;;;;;;;27.20;22.29;100477.78;5021181;28;20495;-54
2022/09/03 04:42:42;;;;;;;1.98;1.80;;;;;;;27.24;22.32;100476.28;5019254;28;20034;-53
2022/09/03 04:45:08;;;;;;;3.17;1.30;;;;;;;26.79;22.27;100468.81;5029822;28;20440;-53
2022/09/03 04:47:36;;;;;;;1.50;1.40;;;;;;;25.60;23.68;100473.06;5029720;28;20104;-55
2022/09/03 04:50:03;;;;;;;2.05;1.55;;;;;;;24.73;25.11;100473.50;5027525;28;20033;-53
2022/09/03 04:52:30;;;;;;;1.60;1.33;;;;;;;25.26;24.44;100479.47;5030710;28;20481;-51
2022/09/03 04:54:56;;;;;;;3.70;1.52;;;;;;;25.82;23.88;100475.63;5021138;28;20534;-53
2022/09/03 04:57:22;;;;;;;1.67;1.40;;;;;;;26.59;23.07;100482.59;5012256;28;20034;-52
2022/09/03 04:59:48;;;;;;;1.77;1.45;;;;;;;27.28;22.21;100462.94;5013505;28;20041;-61
2022/09/03 05:02:14;;;;;;;1.50;1.40;;;;;;;28.33;20.89;100482.78;5027889;28;20064;-55
2022/09/03 05:04:41;;;;;;;2.65;1.40;;;;;;;29.23;19.88;100481.41;5021200;28;20072;-50
2022/09/03 05:07:07;;;;;;;1.58;1.30;;;;;;;30.11;18.64;100477.41;5014565;28;20038;-56
2022/09/03 05:09:33;;;;;;;1.20;1.10;;;;;;;30.84;17.92;100470.78;5014583;28;20096;-60
2022/09/03 05:11:58;;;;;;;1.23;1.13;;;;;;;31.23;17.57;100473.84;5015857;28;20050;-49
2022/09/03 05:14:24;;;;;;;1.73;1.20;;;;;;;31.79;17.01;100476.00;5015777;28;20478;-53
2022/09/03 05:16:49;;;;;;;2.55;1.30;;;;;;;32.40;16.83;100480.06;5024983;28;20034;-56
2022/09/03 05:19:15;;;;;;;1.60;1.00;;;;;;;32.90;15.87;100483.84;5024000;28;20045;-49
2022/09/03 05:21:41;;;;;;;3.33;1.30;;;;;;;33.27;15.69;100494.25;5024634;28;20040;-58
2022/09/03 05:24:07;;;;;;;1.38;1.27;;;;;;;33.74;15.19;100489.22;5023142;28;20048;-55
2022/09/03 05:26:38;;;;;;;1.33;1.05;;;;;;;34.38;14.84;100495.88;5034688;28;20045;-55
2022/09/03 05:29:07;;;;;;;1.77;1.30;;;;;;;34.48;14.74;100495.13;5027809;28;20018;-57
2022/09/03 05:31:37;;;;;;;1.33;1.23;;;;;;;34.45;14.40;100496.47;5013798;28;20030;-50
2022/09/03 05:34:04;;;;;;;0.90;0.90;;;;;;;35.00;13.80;100499.09;5025050;28;20030;-53
2022/09/03 05:36:35;;;;;;;3.00;1.30;;;;;;;35.53;13.57;100486.16;5019370;28;20033;-55
2022/09/03 05:39:01;;;;;;;2.38;1.10;;;;;;;35.98;13.05;100484.53;5020270;28;20033;-55
2022/09/03 05:41:27;;;;;;;2.85;1.27;;;;;;;36.10;12.82;100473.13;5031732;28;20063;-53
2022/09/03 05:43:55;;;;;;;2.63;1.30;;;;;;;36.46;12.79;100512.13;5033395;28;20037;-52
2022/09/03 05:46:30;;;;;;;1.48;1.23;;;;;;;37.12;12.10;100515.03;5024323;28;20030;-52
2022/09/03 05:48:59;;;;;;;;;;;;;;;39.67;13.85;100513.50;5014157;28;20057;-56
2022/09/03 05:51:25;;;;;;;1.77;1.40;;;;;;;38.19;11.76;100514.66;5026566;28;20364;-55
2022/09/03 05:53:52;;;;;;;2.13;1.30;;;;;;;38.43;11.40;100502.66;5033652;28;20034;-54
2022/09/03 05:56:19;;;;;;;2.20;1.30;;;;;;;38.78;10.72;100511.00;5030135;28;20029;-54
2022/09/03 05:58:50;;;;;;;3.33;1.38;;;;;;;39.09;10.58;100518.22;5017985;28;20474;-57
2022/09/03 06:01:21;;;;;;;1.50;1.35;;;;;;;39.21;10.50;100515.78;5021814;28;20022;-55
2022/09/03 06:03:53;;;;;;;2.25;1.30;;;;;;;40.04;10.32;100526.66;5021382;28;20055;-51
2022/09/03 06:06:26;;;;;;;1.95;1.25;;;;;;;40.02;9.81;100528.91;5023625;28;20042;-58
2022/09/03 06:08:53;;;;;;;2.28;1.30;;;;;;;40.30;9.88;100528.22;5028750;28;20036;-58
2022/09/03 06:11:22;;;;;;;2.30;1.35;;;;;;;40.46;9.95;100529.56;5028129;28;20112;-53
2022/09/03 06:13:47;;;;;;;2.35;1.40;;;;;;;40.95;9.06;100520.78;5014262;28;20040;-53
2022/09/03 06:16:13;;;;;;;5.15;1.50;;;;;;;41.38;9.11;100527.19;5018267;28;20025;-54
2022/09/03 06:18:39;;;;;;;1.42;1.30;;;;;;;41.78;8.54;100524.59;5016663;28;20061;-55
2022/09/03 06:21:06;;;;;;;4.20;1.23;;;;;;;42.22;8.41;100532.53;5017364;28;20160;-53
2022/09/03 06:23:33;;;;;;;4.63;1.15;;;;;;;42.40;7.97;100520.22;5019456;28;20076;-55
2022/09/03 06:26:06;;;;;;;3.47;1.33;;;;;;;43.16;8.37;100523.16;5022907;28;20164;-57
2022/09/03 06:28:34;;;;;;;2.22;1.33;;;;;;;43.13;8.10;100532.28;5030517;28;20037;-56
2022/09/03 06:31:02;;;;;;;3.60;1.20;;;;;;;43.12;7.89;100519.34;5029146;28;20032;-55
2022/09/03 06:33:29;;;;;;;2.60;1.33;;;;;;;43.45;7.77;100533.03;5030706;28;20037;-55
2022/09/03 06:36:00;;;;;;;5.45;1.40;;;;;;;43.92;7.08;100512.63;5028203;28;20508;-55
2022/09/03 06:38:27;;;;;;;1.48;1.08;;;;;;;44.13;7.39;100532.53;5028511;28;20037;-55
2022/09/03 06:40:55;;;;;;;2.33;1.58;;;;;;;44.36;6.72;100537.94;5026223;28;20044;-56
2022/09/03 06:43:21;;;;;;;1.63;1.13;;;;;;;44.61;6.75;100532.53;5011093;28;20028;-51
2022/09/03 06:46:00;;;;;;;1.80;1.00;;;;;;;44.98;6.87;100529.25;5012483;28;20093;-56
2022/09/03 06:48:27;;;;;;;1.27;1.17;;;;;;;44.82;6.73;100531.78;5014283;28;20034;-54
2022/09/03 06:50:57;;;;;;;1.30;1.10;;;;;;;44.95;6.83;100532.75;5017502;28;20029;-56
2022/09/03 06:53:27;;;;;;;1.48;1.00;;;;;;;45.36;6.37;100528.34;5030424;28;20198;-49
2022/09/03 06:55:55;;;;;;;2.00;1.00;;;;;;;45.66;6.27;100525.44;5030906;28;20202;-52
2022/09/03 06:58:22;;;;;;;1.95;1.02;;;;;;;45.80;5.98;100527.19;5032249;28;20457;-52
2022/09/03 07:00:48;;;;;;;1.10;1.00;;;;;;;45.55;6.36;100533.50;5016952;28;20485;-51
2022/09/03 07:03:16;;;;;;;1.70;1.05;;;;;;;45.74;6.10;100537.88;5012560;28;20548;-55
2022/09/03 07:05:43;;;;;;;6.05;1.20;;;;;;;46.09;5.86;100536.69;5027143;28;20069;-53
2022/09/03 07:08:09;;;;;;;1.00;0.95;;;;;;;46.03;5.83;100543.75;5029339;28;20116;-55
2022/09/03 07:10:38;;;;;;;1.77;0.90;;;;;;;46.08;6.23;100540.69;5023456;28;20084;-55
2022/09/03 07:13:07;;;;;;;0.82;0.70;;;;;;;44.90;6.14;100528.09;5020239;28;20088;-57
2022/09/03 07:15:33;;;;;;;1.48;0.82;;;;;;;44.77;6.10;100518.72;5021211;28;20119;-53
2022/09/03 07:17:59;;;;;;;0.80;0.75;;;;;;;44.13;6.55;100512.78;5031304;28;20113;-55
2022/09/03 07:20:24;;;;;;;1.67;0.85;;;;;;;44.24;6.16;100529.34;5019313;28;20120;-58
2022/09/03 07:22:54;;;;;;;2.63;0.80;;;;;;;44.93;5.92;100533.09;5023291;28;20121;-58
2022/09/03 07:25:19;;;;;;;2.22;0.90;;;;;;;45.26;5.86;100529.53;5011779;28;20037;-52
2022/09/03 07:27:46;;;;;;;1.47;0.90;;;;;;;45.71;5.66;100518.75;5011230;28;20041;-53
2022/09/03 07:30:11;;;;;;;1.33;0.90;;;;;;;45.72;5.36;100523.25;5021412;28;20267;-60
2022/09/03 07:32:39;;;;;;;1.60;0.70;;;;;;;46.08;5.29;100523.72;5014572;28;20049;-53
2022/09/03 07:35:05;;;;;;;1.27;1.00;;;;;;;46.56;5.47;100527.88;5028515;28;20060;-54
2022/09/03 07:37:30;;;;;;;1.10;0.80;;;;;;;46.46;5.13;100531.16;5029332;28;20431;-54
2022/09/03 07:39:56;;;;;;;1.98;0.90;;;;;;;46.30;5.25;100528.16;5029597;28;20030;-51
2022/09/03 07:42:21;;;;;;;2.22;1.27;;;;;;;45.64;5.61;100526.97;5030125;28;20043;-58
2022/09/03 07:44:46;;;;;;;2.85;0.90;;;;;;;44.77;5.67;100504.59;5029996;28;20112;-49
2022/09/03 07:47:13;;;;;;;1.25;0.85;;;;;;;44.59;5.93;100515.13;5022576;28;20038;-61
2022/09/03 07:49:39;;;;;;;3.50;0.95;;;;;;;44.38;6.15;100521.50;5022844;28;20068;-53
2022/09/03 07:52:06;;;;;;;1.27;0.90;;;;;;;42.73;7.33;100525.53;5028537;28;20120;-55
2022/09/03 07:54:31;;;;;;;2.20;0.93;;;;;;;40.43;8.71;100516.16;5012160;28;20108;-54
2022/09/03 07:56:57;;;;;;;1.67;0.90;;;;;;;39.17;9.02;100509.13;5023710;28;20120;-56
2022/09/03 07:59:23;;;;;;;3.40;0.90;;;;;;;39.16;9.19;100510.28;5028067;28;20071;-56
2022/09/03 08:01:49;;;;;;;2.25;0.93;;;;;;;38.52;9.81;100521.63;5012316;28;20478;-57
2022/09/03 08:04:15;;;;;;;3.58;0.98;;;;;;;36.78;11.11;100515.72;5010493;28;20457;-58
2022/09/03 08:06:41;;;;;;;2.05;0.85;;;;;;;34.29;12.73;100517.78;5013368;28;20502;-58
2022/09/03 08:09:10;;;;;;;2.28;0.80;;;;;;;31.74;15.35;100534.03;5014171;28;20464;-54
2022/09/03 08:11:37;;;;;;;4.10;0.77;;;;;;;29.14;17.73;100534.31;5018179;28;20033;-54
2022/09/03 08:14:06;;;;;;;7.28;0.80;;;;;;;27.10;19.49;100537.88;5015984;28;20092;-54
2022/09/03 08:16:40;;;;;;;0.98;0.82;;;;;;;25.47;21.80;100530.59;5011078;28;20057;-54
2022/09/03 08:19:06;;;;;;;0.88;0.88;;;;;;;24.19;23.74;100538.81;5010699;28;20474;-54
2022/09/03 08:21:32;;;;;;;2.92;1.10;;;;;;;23.02;25.35;100532.34;5010302;28;20048;-50
2022/09/03 08:24:01;;;;;;;1.15;1.00;;;;;;;22.17;26.63;100521.56;5025079;28;20508;-54
2022/09/03 08:26:33;;;;;;;0.98;0.90;;;;;;;21.77;26.99;100521.69;5023425;28;20033;-54
2022/09/03 08:28:59;;;;;;;1.42;1.10;;;;;;;21.40;28.07;100517.78;5012507;28;20022;-53
2022/09/03 08:31:26;;;;;;;3.97;0.80;;;;;;;21.01;28.21;100520.34;5011441;28;20128;-55
2022/09/03 08:33:53;;;;;;;4.00;0.93;;;;;;;20.38;28.76;100492.91;5022674;28;20436;-55
2022/09/03 08:36:21;;;;;;;3.50;0.70;;;;;;;20.14;29.07;100535.41;5030839;28;20030;-53
2022/09/03 08:38:53;;;;;;;1.73;0.80;;;;;;;19.77;29.58;100520.38;5027303;28;20025;-54
2022/09/03 08:41:43;;;;;;;4.32;0.98;;;;;;;19.50;29.29;100523.22;5028843;28;20482;-51
2022/09/03 08:44:22;;;;;;;1.05;0.60;;;;;;;18.91;31.22;100509.56;5027308;28;20482;-54
2022/09/03 08:46:53;;;;;;;1.20;0.70;;;;;;;18.79;31.15;100507.09;5011753;28;20398;-53
2022/09/03 08:49:32;;;;;;;1.73;0.70;;;;;;;18.89;30.70;100514.28;5014086;28;20041;-54
2022/09/03 08:52:02;;;;;;;3.88;0.80;;;;;;;18.96;30.84;100512.63;5027268;28;20049;-54
2022/09/03 08:54:31;;;;;;;3.70;0.95;;;;;;;18.92;31.57;100512.09;5028051;28;20159;-55
2022/09/03 08:57:01;;;;;;;2.75;1.10;;;;;;;19.07;30.67;100512.38;5029527;28;20030;-52
2022/09/03 08:59:29;;;;;;;7.22;0.88;;;;;;;19.20;30.39;100511.06;5015621;28;20096;-57
2022/09/03 09:02:21;;;;;;;1.52;0.60;;;;;;;19.45;28.92;100509.28;5010582;28;20037;-54
2022/09/03 09:05:05;;;;;;;2.67;0.70;;;;;;;19.38;29.79;100504.69;5011481;28;20046;-58
2022/09/03 09:07:33;;;;;;;3.08;0.70;;;;;;;19.49;30.00;100504.38;5011809;28;20030;-54
2022/09/03 09:10:15;;;;;;;0.90;0.90;;;;;;;19.70;29.91;100505.78;5011641;28;20054;-51
2022/09/03 09:12:46;;;;;;;3.63;0.82;;;;;;;19.53;30.22;100513.88;5012986;28;20037;-56
2022/09/03 09:15:43;;;;;;;1.95;0.60;;;;;;;19.65;29.33;100519.84;5030264;28;20033;-58
2022/09/03 09:18:18;;;;;;;2.17;0.80;;;;;;;19.53;29.47;100519.31;5016055;28;20057;-51
2022/09/03 09:21:06;;;;;;;1.67;0.60;;;;;;;19.72;29.39;100512.75;5009885;28;20041;-55
2022/09/03 09:23:38;;;;;;;1.55;0.70;;;;;;;19.90;28.62;100515.31;5010170;28;20052;-51
2022/09/03 09:26:09;;;;;;;1.65;0.68;;;;;;;19.90;28.32;100495.47;5012096;28;20429;-52
2022/09/03 09:28:36;;;;;;;2.00;0.80;;;;;;;20.03;27.89;100505.84;5021483;28;20025;-55
2022/09/03 09:31:06;;;;;;;0.73;0.60;;;;;;;19.89;27.67;100497.31;5022645;28;20033;-53
2022/09/03 09:33:33;;;;;;;0.77;0.52;;;;;;;19.60;27.80;100508.63;5018788;28;20057;-52
2022/09/03 09:36:03;;;;;;;2.28;0.70;;;;;;;19.42;28.31;100501.47;5008977;28;20403;-53
2022/09/03 09:38:30;;;;;;;3.17;0.80;;;;;;;19.38;28.22;100508.22;5010377;28;20417;-53
2022/09/03 09:41:09;;;;;;;1.60;0.88;;;;;;;19.46;28.10;100501.97;5011017;28;20030;-54
2022/09/03 09:43:34;;;;;;;2.63;0.60;;;;;;;19.03;28.40;100496.59;5028511;28;20433;-53
2022/09/03 09:46:07;;;;;;;0.90;0.70;;;;;;;18.99;27.98;100501.47;5029642;28;20034;-52
2022/09/03 09:48:38;;;;;;;0.98;0.57;;;;;;;18.76;28.92;100503.88;5009350;28;20058;-52
2022/09/03 09:51:12;;;;;;;0.77;0.60;;;;;;;18.58;29.03;100495.81;5012114;28;20030;-52
2022/09/03 09:53:39;;;;;;;0.85;0.60;;;;;;;18.30;29.85;100499.50;5020824;28;20026;-53
2022/09/03 09:56:05;;;;;;;0.63;0.40;;;;;;;18.16;29.42;100491.94;5020534;28;20030;-54
2022/09/03 09:58:32;;;;;;;2.00;0.70;;;;;;;18.21;29.45;100490.47;5028637;28;20037;-52
2022/09/03 10:00:58;;;;;;;0.55;0.50;;;;;;;18.42;29.27;100483.84;5018194;28;20038;-54
2022/09/03 10:03:24;;;;;;;1.00;0.57;;;;;;;18.59;29.22;100483.97;5013394;28;20060;-56
2022/09/03 10:09:14;;;;;;;1.88;0.82;;;;;;;19.08;28.52;100481.50;5018717;28;20061;-52
2022/09/03 10:11:45;;;;;;;0.68;0.52;;;;;;;19.45;28.30;100484.00;5033007;28;20139;-51
2022/09/03 10:14:23;;;;;;;1.63;0.60;;;;;;;19.60;27.50;100479.63;5016232;28;20064;-54
2022/09/03 10:17:04;;;;;;;0.68;0.65;;;;;;;19.54;27.25;100479.44;5024000;28;20037;-51
2022/09/03 10:22:55;;;;;;;3.50;0.50;;;;;;;18.83;27.89;100468.81;5012705;28;20060;-56
2022/09/03 10:25:24;;;;;;;0.75;0.65;;;;;;;18.55;28.76;100479.84;5023255;28;20048;-58
2022/09/03 10:27:52;;;;;;;1.00;0.60;;;;;;;18.32;28.61;100492.06;5032582;28;20452;-54
2022/09/03 10:30:18;;;;;;;0.98;0.60;;;;;;;18.14;29.12;100485.81;5020545;28;20038;-53
2022/09/03 10:33:05;;;;;;;3.33;0.50;;;;;;;18.33;29.69;100490.22;5026371;28;20029;-51
2022/09/03 10:35:40;;;;;;;1.50;0.50;;;;;;;18.47;29.02;100486.91;5023790;28;20029;-55
2022/09/03 10:38:22;;;;;;;0.73;0.68;;;;;;;18.83;28.39;100483.22;5031043;28;20033;-55
2022/09/03 10:41:08;;;;;;;0.75;0.63;;;;;;;18.97;28.04;100489.91;5013731;28;20116;-56
2022/09/03 10:44:05;;;;;;;2.10;0.60;;;;;;;19.15;27.60;100486.28;5013940;28;20061;-49
2022/09/03 10:46:53;;;;;;;0.90;0.70;;;;;;;19.34;27.65;100493.28;5031265;28;20038;-48
2022/09/03 10:49:30;;;;;;;1.40;0.80;;;;;;;19.45;27.47;100486.69;5023265;28;20104;-53
2022/09/03 10:52:16;;;;;;;1.77;0.68;;;;;;;19.47;26.85;100496.41;5024465;28;20033;-53
2022/09/03 10:54:51;;;;;;;0.70;0.30;;;;;;;19.48;27.02;100503.53;5014991;28;20481;-51
2022/09/03 10:57:35;;;;;;;;;;;;;;;19.94;26.20;100494.97;5023347;28;20112;-50
2022/09/03 11:00:11;;;;;;;2.45;0.73;;;;;;;19.69;26.83;100493.19;5012031;28;19925;-51
2022/09/03 11:03:01;;;;;;;1.45;0.70;;;;;;;19.59;27.05;100501.50;5010947;28;20029;-55
2022/09/03 11:05:46;;;;;;;4.57;0.70;;;;;;;19.47;27.51;100501.81;5012986;28;20050;-57
2022/09/03 11:08:21;;;;;;;2.85;0.60;;;;;;;19.29;28.09;100499.25;5012226;28;20145;-58
2022/09/03 11:10:59;;;;;;;1.42;0.50;;;;;;;19.30;27.99;100489.22;5014142;28;20033;-51
2022/09/03 11:13:36;;;;;;;1.77;0.70;;;;;;;19.13;28.08;100481.00;5014563;28;20034;-55
2022/09/03 11:16:10;;;;;;;1.10;0.63;;;;;;;18.89;28.59;100487.16;5011762;28;20042;-54
2022/09/03 11:18:50;;;;;;;1.17;0.50;;;;;;;18.54;29.40;100492.56;5012525;28;20465;-53
2022/09/03 11:21:23;;;;;;;0.70;0.60;;;;;;;18.29;29.74;100488.81;5021435;28;20037;-55
2022/09/03 11:24:05;;;;;;;0.60;0.60;;;;;;;17.95;30.35;100501.22;5027928;28;20061;-51
2022/09/03 11:26:33;;;;;;;3.80;0.68;;;;;;;17.51;31.04;100469.50;5011983;28;20076;-55
2022/09/03 11:29:08;;;;;;;1.45;0.75;;;;;;;17.59;31.00;100485.81;5011457;28;20037;-52
2022/09/03 11:31:49;;;;;;;0.63;0.57;;;;;;;17.80;30.55;100495.50;5016354;28;20026;-54
2022/09/03 11:34:26;;;;;;;2.10;1.10;;;;;;;17.96;30.74;100489.38;5011987;28;20038;-50
2022/09/03 11:37:05;;;;;;;6.88;0.57;;;;;;;18.10;31.24;100493.44;5011700;28;20022;-56
2022/09/03 11:39:30;;;;;;;0.50;0.50;;;;;;;18.00;30.90;100487.22;5012341;28;20381;-52
2022/09/03 11:42:07;;;;;;;1.60;0.50;;;;;;;18.19;30.82;100470.81;5011634;28;20038;-56
2022/09/03 11:44:40;;;;;;;2.95;0.60;;;;;;;18.61;30.03;100480.06;5011908;28;20049;-56
2022/09/03 11:47:15;;;;;;;2.60;0.60;;;;;;;19.02;29.69;100474.00;5010725;28;20061;-54
2022/09/03 11:49:51;;;;;;;;;;;;;;;19.56;28.67;100474.69;5012143;28;20038;-54
2022/09/03 11:52:28;;;;;;;1.50;0.90;;;;;;;19.25;29.20;100469.84;5010704;28;19917;-55
2022/09/03 11:54:54;;;;;;;2.38;0.50;;;;;;;18.90;29.76;100464.44;5012287;28;20760;-53